Terminal Aerodrome Forecast
Issued by NWS Huntsville, AL

Home | Current Version | Previous Version | Text Only | Print | Product List | Glossary On
Versions: 1 2 3 4 5 6 7 8 9 10 11 12 13 14 15
000
FTUS44 KHUN 230520
TAFMSL
TAF
KMSL 230520Z 2306/2406 VRB03KT 5SM BR SKC
      TEMPO 2307/2309 2SM BR
     FM230900 VRB02KT 3SM BR SKC
      TEMPO 2310/2313 3/4SM BR
     FM231500 16007KT P6SM SCT030
     FM240100 13004KT P6SM FEW250=

USA.gov is the U.S. government's official web portal to all federal, state and local government web resources and services.